sim
Sign-in with your pilot id or email,
or register
Callsign
Passwort

Schedule Details

Flight Number: EWG9654
Departure: Dusseldorf International Airport (EDDL) at 06:25
Arrival: Thessaloniki International Airport (LGTS) at 09:05
Route: Eurowings Passenger Schedule. Enter filed route here before submitting Pirep.

Weather Information
Getting current METAR information for EDDL 211620Z 23005KT 9999 BKN033 12/07 Q1027 NOSIG
Getting current METAR information for LGTS 211620Z 36006KT CAVOK 14/00 Q1022 NOSIG

Schedule Frequency

Route Map